Aérodrome :
LOGIN :

S'inscrire | Disclaimer

   EN    FR    IT 

 










Légende :    VFR   VFR Marginal   IFR   IFR Intensif   IFR Très Intensif
Visi : 
Plafond : 
>= 8 km
>= 3000ft
5 à 8 km
1000 à 3000 ft
1500m à 5 km
500 à 1000 ft
800 à 1500m
200 à 500 ft
< 800m
< 200 ft
Symboles :   Orages  Brouillard  Fortes neiges  Fortes précipitations  Vent > 20 kt
SIGMETs :   Divers  Orages  Givrage  Turbulence  Onde Orograph.  Cendres Volcan.







- Altitude de l'aérodrome : 776 ft
- Code IATA : RMS


ETAR - Ramstein Air Base

DERNIER METAR :
  • 230726Z 02009KT 9999 SCT014 03/02 A3064 RMK AO2A SLP389 $

METARs EXPIRÉS :
  • 230656Z 03008KT 9999 BKN014 03/03 A3063 RMK AO2A SLP385 $
  • 230626Z 06004KT 9999 OVC015 02/01 A3063 RMK AO2A SLP386 $
  • 230556Z 07004KT 9999 OVC014 02/01 A3063 RMK AO2A SLP384 10017 21029 57003 $
  • 230516Z 08004KT 9000 BR OVC014 01/00 A3063 RMK AO2A SLP384 $
  • 230456Z 06004KT 9000 BR OVC015 00/M02 A3063 RMK AO2A SLP385 T1002 $
  • 230427Z 07005KT 8000 BR BKN016 M01/M02 A3064 RMK AO2A BKN V SCT SLP388 $

TAF AMD TAF ETAR
Valide du 23 à 04h jusqu'au 24 à 08h UTC


230446Z 2304/2408 09009KT 9999 BKN015 QNH3065INS
BECMG 2310/2311 09012KT 9999 SKC QNH3062INS
TEMPO 2310/2316 09012G20KT
BECMG 2320/2321 VRB06KT 9999 SKC QNH3061INS TX08/2314Z TNM02/2402Z
Pas de NOTAMs connus pour ce terrain.



MET'MAP, la Météo Aéronautique d'un coup d'oeil ! - Copyright ORBIFLY Décembre 2007 - Disclaimer

ORBIFLY MET'MAP TEAM :

Programmation & Développement : Alexandra Zaïnal
Conception & Développement : Baudouin d'Aumeries
Co-Programmation & Développement : Marc-Olivier Méhu
Soutien technique & logistique : Manuel Goepfert

Contact : metmap@orbifly.com




SOURCES & CREDITS :

   NOAA